sensor_id;sensor_type;location;lat;lon;timestamp;pressure;altitude;pressure_sealevel;temperature;humidity
5954;BME280;3002;42.642;24.812;2023-04-24T00:00:01;96324.16;;;12.68;77.40
5954;BME280;3002;42.642;24.812;2023-04-24T00:02:27;96326.19;;;12.85;77.32
5954;BME280;3002;42.642;24.812;2023-04-24T00:04:52;96308.31;;;13.11;75.06
5954;BME280;3002;42.642;24.812;2023-04-24T00:07:18;96306.00;;;13.19;73.56
5954;BME280;3002;42.642;24.812;2023-04-24T00:09:45;96328.00;;;13.34;72.63
5954;BME280;3002;42.642;24.812;2023-04-24T00:12:10;96314.94;;;13.05;74.51
5954;BME280;3002;42.642;24.812;2023-04-24T00:14:36;96328.72;;;13.04;74.74
5954;BME280;3002;42.642;24.812;2023-04-24T00:17:01;96319.59;;;12.91;75.82
5954;BME280;3002;42.642;24.812;2023-04-24T00:19:30;96327.78;;;13.08;74.66
5954;BME280;3002;42.642;24.812;2023-04-24T00:21:56;96292.97;;;12.67;75.78
5954;BME280;3002;42.642;24.812;2023-04-24T00:24:21;96300.34;;;12.62;76.56
5954;BME280;3002;42.642;24.812;2023-04-24T00:26:47;96326.31;;;12.44;79.76
5954;BME280;3002;42.642;24.812;2023-04-24T00:29:12;96323.19;;;12.50;78.31
5954;BME280;3002;42.642;24.812;2023-04-24T00:31:38;96280.69;;;12.39;75.92
5954;BME280;3002;42.642;24.812;2023-04-24T00:34:04;96314.72;;;12.57;73.00
5954;BME280;3002;42.642;24.812;2023-04-24T00:36:30;96288.06;;;12.69;69.96
5954;BME280;3002;42.642;24.812;2023-04-24T00:38:56;96310.91;;;12.58;70.15
5954;BME280;3002;42.642;24.812;2023-04-24T00:41:22;96306.38;;;12.45;71.25
5954;BME280;3002;42.642;24.812;2023-04-24T00:43:49;96279.31;;;12.64;69.40
5954;BME280;3002;42.642;24.812;2023-04-24T00:46:16;96299.28;;;12.85;68.69
5954;BME280;3002;42.642;24.812;2023-04-24T00:48:42;96292.72;;;12.77;69.28
5954;BME280;3002;42.642;24.812;2023-04-24T00:51:08;96298.66;;;12.88;69.22
5954;BME280;3002;42.642;24.812;2023-04-24T00:53:34;96299.94;;;13.13;69.40
5954;BME280;3002;42.642;24.812;2023-04-24T00:56:00;96309.94;;;12.54;72.91
5954;BME280;3002;42.642;24.812;2023-04-24T00:58:25;96304.16;;;12.61;72.65
5954;BME280;3002;42.642;24.812;2023-04-24T01:00:52;96288.16;;;12.42;73.17
5954;BME280;3002;42.642;24.812;2023-04-24T01:03:20;96297.63;;;12.39;74.71
5954;BME280;3002;42.642;24.812;2023-04-24T01:05:49;96294.56;;;12.32;75.60
5954;BME280;3002;42.642;24.812;2023-04-24T01:08:15;96294.25;;;12.70;72.92
5954;BME280;3002;42.642;24.812;2023-04-24T01:10:41;96292.59;;;12.82;73.53
5954;BME280;3002;42.642;24.812;2023-04-24T01:13:10;96301.34;;;12.66;74.35
5954;BME280;3002;42.642;24.812;2023-04-24T01:15:35;96276.56;;;12.19;76.20
5954;BME280;3002;42.642;24.812;2023-04-24T01:18:02;96282.66;;;11.83;80.71
5954;BME280;3002;42.642;24.812;2023-04-24T01:20:28;96275.78;;;11.77;81.52
5954;BME280;3002;42.642;24.812;2023-04-24T01:22:55;96290.88;;;11.73;82.23
5954;BME280;3002;42.642;24.812;2023-04-24T01:25:22;96287.53;;;11.81;81.91
5954;BME280;3002;42.642;24.812;2023-04-24T01:27:48;96285.44;;;11.64;84.10
5954;BME280;3002;42.642;24.812;2023-04-24T01:30:14;96293.38;;;11.56;84.28
5954;BME280;3002;42.642;24.812;2023-04-24T01:32:40;96281.25;;;11.58;83.28
5954;BME280;3002;42.642;24.812;2023-04-24T01:35:06;96270.06;;;11.51;83.16
5954;BME280;3002;42.642;24.812;2023-04-24T01:37:32;96274.66;;;11.37;85.49
5954;BME280;3002;42.642;24.812;2023-04-24T01:39:58;96281.91;;;11.22;86.99
5954;BME280;3002;42.642;24.812;2023-04-24T01:42:24;96274.53;;;11.28;86.87
5954;BME280;3002;42.642;24.812;2023-04-24T01:44:50;96246.53;;;11.34;86.96
5954;BME280;3002;42.642;24.812;2023-04-24T01:47:16;96260.44;;;11.36;86.83
5954;BME280;3002;42.642;24.812;2023-04-24T01:49:42;96249.56;;;11.14;88.72
5954;BME280;3002;42.642;24.812;2023-04-24T01:52:07;96266.97;;;11.16;89.75
5954;BME280;3002;42.642;24.812;2023-04-24T01:54:33;96255.28;;;10.93;89.58
5954;BME280;3002;42.642;24.812;2023-04-24T01:56:59;96250.81;;;11.03;87.76
5954;BME280;3002;42.642;24.812;2023-04-24T01:59:27;96240.84;;;10.89;91.23
5954;BME280;3002;42.642;24.812;2023-04-24T02:01:53;96263.72;;;11.47;86.79
5954;BME280;3002;42.642;24.812;2023-04-24T02:04:19;96252.28;;;11.69;84.13
5954;BME280;3002;42.642;24.812;2023-04-24T02:06:44;96239.75;;;11.92;82.18
5954;BME280;3002;42.642;24.812;2023-04-24T02:09:10;96263.59;;;12.21;81.67
5954;BME280;3002;42.642;24.812;2023-04-24T02:11:36;96267.34;;;12.33;81.76
5954;BME280;3002;42.642;24.812;2023-04-24T02:14:01;96249.88;;;12.09;83.00
5954;BME280;3002;42.642;24.812;2023-04-24T02:16:28;96259.50;;;12.23;82.09
5954;BME280;3002;42.642;24.812;2023-04-24T02:18:57;96260.53;;;12.14;85.03
5954;BME280;3002;42.642;24.812;2023-04-24T02:21:22;96235.47;;;12.04;85.32
5954;BME280;3002;42.642;24.812;2023-04-24T02:23:48;96231.28;;;12.12;85.06
5954;BME280;3002;42.642;24.812;2023-04-24T02:26:13;96236.72;;;12.21;86.48
5954;BME280;3002;42.642;24.812;2023-04-24T02:28:39;96257.75;;;12.55;85.93
5954;BME280;3002;42.642;24.812;2023-04-24T02:31:04;96251.59;;;12.41;85.45
5954;BME280;3002;42.642;24.812;2023-04-24T02:33:31;96223.13;;;12.03;88.65
5954;BME280;3002;42.642;24.812;2023-04-24T02:35:56;96202.25;;;12.00;87.39
5954;BME280;3002;42.642;24.812;2023-04-24T02:38:22;96215.75;;;12.09;84.25
5954;BME280;3002;42.642;24.812;2023-04-24T02:40:47;96241.72;;;12.50;84.55
5954;BME280;3002;42.642;24.812;2023-04-24T02:43:13;96215.06;;;12.62;81.57
5954;BME280;3002;42.642;24.812;2023-04-24T02:45:38;96213.38;;;12.66;82.11
5954;BME280;3002;42.642;24.812;2023-04-24T02:48:04;96216.72;;;12.72;84.94
5954;BME280;3002;42.642;24.812;2023-04-24T02:50:29;96210.97;;;12.42;86.41
5954;BME280;3002;42.642;24.812;2023-04-24T02:52:55;96206.06;;;12.22;88.62
5954;BME280;3002;42.642;24.812;2023-04-24T02:55:20;96199.72;;;12.18;88.82
5954;BME280;3002;42.642;24.812;2023-04-24T02:57:46;96220.13;;;12.05;93.19
5954;BME280;3002;42.642;24.812;2023-04-24T03:00:12;96224.03;;;11.99;93.71
5954;BME280;3002;42.642;24.812;2023-04-24T03:02:38;96234.47;;;11.73;96.82
5954;BME280;3002;42.642;24.812;2023-04-24T03:05:04;96229.13;;;11.59;99.06
5954;BME280;3002;42.642;24.812;2023-04-24T03:07:29;96208.47;;;10.86;100.00
5954;BME280;3002;42.642;24.812;2023-04-24T03:09:56;96231.00;;;11.31;100.00
5954;BME280;3002;42.642;24.812;2023-04-24T03:12:23;96250.00;;;11.62;98.29
5954;BME280;3002;42.642;24.812;2023-04-24T03:14:49;96232.88;;;11.44;98.08
5954;BME280;3002;42.642;24.812;2023-04-24T03:17:14;96242.34;;;11.28;99.52
5954;BME280;3002;42.642;24.812;2023-04-24T03:19:40;96249.00;;;11.44;98.24
5954;BME280;3002;42.642;24.812;2023-04-24T03:22:06;96274.97;;;11.76;96.79
5954;BME280;3002;42.642;24.812;2023-04-24T03:24:31;96251.22;;;11.84;93.32
5954;BME280;3002;42.642;24.812;2023-04-24T03:26:57;96257.66;;;11.69;92.31
5954;BME280;3002;42.642;24.812;2023-04-24T03:29:22;96254.16;;;11.68;93.67
5954;BME280;3002;42.642;24.812;2023-04-24T03:31:48;96255.47;;;11.71;94.28
5954;BME280;3002;42.642;24.812;2023-04-24T03:34:13;96244.81;;;11.38;98.16
5954;BME280;3002;42.642;24.812;2023-04-24T03:36:39;96238.75;;;11.60;96.49
5954;BME280;3002;42.642;24.812;2023-04-24T03:39:04;96242.91;;;11.39;97.86
5954;BME280;3002;42.642;24.812;2023-04-24T03:41:30;96269.59;;;11.35;100.00
5954;BME280;3002;42.642;24.812;2023-04-24T03:43:56;96260.94;;;11.66;98.82
5954;BME280;3002;42.642;24.812;2023-04-24T03:46:21;96268.94;;;11.85;96.03
5954;BME280;3002;42.642;24.812;2023-04-24T03:48:47;96263.53;;;11.98;95.34
5954;BME280;3002;42.642;24.812;2023-04-24T03:51:12;96262.81;;;12.20;94.47
5954;BME280;3002;42.642;24.812;2023-04-24T03:53:37;96280.03;;;12.19;97.20
5954;BME280;3002;42.642;24.812;2023-04-24T03:56:03;96273.94;;;12.27;98.00
5954;BME280;3002;42.642;24.812;2023-04-24T03:58:28;96278.56;;;11.99;100.00
5954;BME280;3002;42.642;24.812;2023-04-24T04:00:54;96276.56;;;12.05;100.00
5954;BME280;3002;42.642;24.812;2023-04-24T04:03:22;96256.16;;;12.18;100.00
5954;BME280;3002;42.642;24.812;2023-04-24T04:05:47;96271.19;;;12.19;99.78
5954;BME280;3002;42.642;24.812;2023-04-24T04:08:13;96270.78;;;12.25;100.00
5954;BME280;3002;42.642;24.812;2023-04-24T04:10:38;96224.84;;;11.86;100.00
5954;BME280;3002;42.642;24.812;2023-04-24T04:13:04;96267.72;;;12.18;100.00
5954;BME280;3002;42.642;24.812;2023-04-24T04:15:29;96255.84;;;12.19;100.00
5954;BME280;3002;42.642;24.812;2023-04-24T04:17:54;96260.66;;;12.45;100.00
5954;BME280;3002;42.642;24.812;2023-04-24T04:20:20;96281.63;;;12.56;100.00
5954;BME280;3002;42.642;24.812;2023-04-24T04:22:45;96273.00;;;12.46;100.00
5954;BME280;3002;42.642;24.812;2023-04-24T04:25:11;96275.25;;;12.66;100.00
5954;BME280;3002;42.642;24.812;2023-04-24T04:27:38;96259.91;;;12.53;100.00
5954;BME280;3002;42.642;24.812;2023-04-24T04:30:04;96276.84;;;12.90;97.97
5954;BME280;3002;42.642;24.812;2023-04-24T04:32:36;96287.69;;;13.07;96.18
5954;BME280;3002;42.642;24.812;2023-04-24T04:35:02;96286.38;;;12.96;95.53
5954;BME280;3002;42.642;24.812;2023-04-24T04:37:32;96285.41;;;13.14;93.49
5954;BME280;3002;42.642;24.812;2023-04-24T04:39:59;96287.28;;;13.13;91.21
5954;BME280;3002;42.642;24.812;2023-04-24T04:42:25;96285.09;;;13.38;89.13
5954;BME280;3002;42.642;24.812;2023-04-24T04:44:50;96266.13;;;13.21;92.00
5954;BME280;3002;42.642;24.812;2023-04-24T04:47:16;96289.25;;;13.22;91.59
5954;BME280;3002;42.642;24.812;2023-04-24T04:49:43;96288.00;;;13.05;90.14
5954;BME280;3002;42.642;24.812;2023-04-24T04:52:09;96281.66;;;13.24;84.49
5954;BME280;3002;42.642;24.812;2023-04-24T04:54:34;96278.03;;;13.06;84.04
5954;BME280;3002;42.642;24.812;2023-04-24T04:57:00;96277.78;;;13.38;81.80
5954;BME280;3002;42.642;24.812;2023-04-24T04:59:26;96286.00;;;13.73;81.51
5954;BME280;3002;42.642;24.812;2023-04-24T05:01:52;96267.25;;;13.51;82.60
5954;BME280;3002;42.642;24.812;2023-04-24T05:04:17;96273.66;;;13.72;84.23
5954;BME280;3002;42.642;24.812;2023-04-24T05:06:43;96280.84;;;13.85;84.46
5954;BME280;3002;42.642;24.812;2023-04-24T05:09:09;96236.88;;;13.68;85.07
5954;BME280;3002;42.642;24.812;2023-04-24T05:11:36;96256.63;;;14.03;82.97
5954;BME280;3002;42.642;24.812;2023-04-24T05:14:01;96268.56;;;14.19;79.60
5954;BME280;3002;42.642;24.812;2023-04-24T05:16:27;96284.34;;;14.60;74.59
5954;BME280;3002;42.642;24.812;2023-04-24T05:18:52;96278.00;;;14.82;72.18
5954;BME280;3002;42.642;24.812;2023-04-24T05:21:18;96283.78;;;15.36;70.07
5954;BME280;3002;42.642;24.812;2023-04-24T05:23:43;96260.78;;;15.30;67.80
5954;BME280;3002;42.642;24.812;2023-04-24T05:26:09;96285.41;;;15.20;71.34
5954;BME280;3002;42.642;24.812;2023-04-24T05:28:35;96260.97;;;15.08;70.35
5954;BME280;3002;42.642;24.812;2023-04-24T05:31:02;96285.34;;;15.55;69.42
5954;BME280;3002;42.642;24.812;2023-04-24T05:33:28;96273.69;;;15.71;67.99
5954;BME280;3002;42.642;24.812;2023-04-24T05:35:53;96287.34;;;15.75;67.46
5954;BME280;3002;42.642;24.812;2023-04-24T05:38:19;96283.59;;;15.97;66.41
5954;BME280;3002;42.642;24.812;2023-04-24T05:40:48;96268.41;;;16.55;62.73
5954;BME280;3002;42.642;24.812;2023-04-24T05:43:13;96299.63;;;17.36;59.96
5954;BME280;3002;42.642;24.812;2023-04-24T05:45:39;96286.59;;;19.29;54.05
5954;BME280;3002;42.642;24.812;2023-04-24T05:48:04;96291.78;;;18.78;53.76
5954;BME280;3002;42.642;24.812;2023-04-24T05:50:31;96295.34;;;18.17;55.65
5954;BME280;3002;42.642;24.812;2023-04-24T05:52:56;96286.41;;;18.93;52.68
5954;BME280;3002;42.642;24.812;2023-04-24T05:55:26;96299.34;;;19.68;48.98
5954;BME280;3002;42.642;24.812;2023-04-24T05:57:52;96275.50;;;20.99;46.64
5954;BME280;3002;42.642;24.812;2023-04-24T06:00:18;96275.56;;;21.22;46.86
5954;BME280;3002;42.642;24.812;2023-04-24T06:02:45;96289.47;;;20.43;46.41
5954;BME280;3002;42.642;24.812;2023-04-24T06:05:12;96256.69;;;20.04;45.81
5954;BME280;3002;42.642;24.812;2023-04-24T06:07:38;96269.75;;;20.65;44.46
5954;BME280;3002;42.642;24.812;2023-04-24T06:10:04;96283.66;;;19.06;47.67
5954;BME280;3002;42.642;24.812;2023-04-24T06:12:29;96277.09;;;20.45;45.67
5954;BME280;3002;42.642;24.812;2023-04-24T06:14:55;96262.34;;;21.04;44.31
5954;BME280;3002;42.642;24.812;2023-04-24T06:17:21;96270.91;;;21.03;44.51
5954;BME280;3002;42.642;24.812;2023-04-24T06:19:46;96249.50;;;21.24;43.45
5954;BME280;3002;42.642;24.812;2023-04-24T06:22:12;96248.34;;;21.45;42.83
5954;BME280;3002;42.642;24.812;2023-04-24T06:24:39;96240.72;;;23.13;40.71
5954;BME280;3002;42.642;24.812;2023-04-24T06:27:05;96242.09;;;22.39;41.12
5954;BME280;3002;42.642;24.812;2023-04-24T06:29:30;96254.41;;;20.96;43.30
5954;BME280;3002;42.642;24.812;2023-04-24T06:31:56;96265.63;;;19.13;47.99
5954;BME280;3002;42.642;24.812;2023-04-24T06:34:21;96255.38;;;19.98;45.69
5954;BME280;3002;42.642;24.812;2023-04-24T06:36:47;96251.59;;;22.00;43.39
5954;BME280;3002;42.642;24.812;2023-04-24T06:39:12;96260.28;;;20.43;45.18
5954;BME280;3002;42.642;24.812;2023-04-24T06:41:38;96245.38;;;21.30;44.56
5954;BME280;3002;42.642;24.812;2023-04-24T06:44:05;96249.38;;;22.58;41.81
5954;BME280;3002;42.642;24.812;2023-04-24T06:46:30;96265.72;;;22.55;41.90
5954;BME280;3002;42.642;24.812;2023-04-24T06:48:56;96263.56;;;22.37;41.33
5954;BME280;3002;42.642;24.812;2023-04-24T06:51:25;96265.59;;;22.44;42.90
5954;BME280;3002;42.642;24.812;2023-04-24T06:53:52;96240.69;;;23.09;41.59
5954;BME280;3002;42.642;24.812;2023-04-24T06:56:18;96248.69;;;23.29;41.06
5954;BME280;3002;42.642;24.812;2023-04-24T06:58:44;96250.94;;;20.99;44.87
5954;BME280;3002;42.642;24.812;2023-04-24T07:01:10;96247.31;;;23.45;41.18
5954;BME280;3002;42.642;24.812;2023-04-24T07:03:36;96236.19;;;24.75;37.77
5954;BME280;3002;42.642;24.812;2023-04-24T07:06:01;96242.44;;;22.94;40.07
5954;BME280;3002;42.642;24.812;2023-04-24T07:08:29;96261.47;;;22.31;42.24
5954;BME280;3002;42.642;24.812;2023-04-24T07:10:56;96228.84;;;21.23;44.83
5954;BME280;3002;42.642;24.812;2023-04-24T07:13:22;96258.13;;;20.68;45.56
5954;BME280;3002;42.642;24.812;2023-04-24T07:15:48;96254.19;;;21.24;46.80
5954;BME280;3002;42.642;24.812;2023-04-24T07:18:16;96267.94;;;21.50;44.87
5954;BME280;3002;42.642;24.812;2023-04-24T07:20:41;96274.47;;;21.46;46.10
5954;BME280;3002;42.642;24.812;2023-04-24T07:23:07;96276.25;;;21.80;45.40
5954;BME280;3002;42.642;24.812;2023-04-24T07:25:33;96264.09;;;24.29;39.88
5954;BME280;3002;42.642;24.812;2023-04-24T07:27:59;96267.06;;;23.28;42.15
5954;BME280;3002;42.642;24.812;2023-04-24T07:32:59;96266.63;;;23.26;42.14
5954;BME280;3002;42.642;24.812;2023-04-24T07:35:26;96267.19;;;24.27;40.40
5954;BME280;3002;42.642;24.812;2023-04-24T07:37:55;96259.84;;;22.53;43.35
5954;BME280;3002;42.642;24.812;2023-04-24T07:40:22;96258.59;;;21.51;45.93
5954;BME280;3002;42.642;24.812;2023-04-24T07:42:48;96252.69;;;22.18;45.26
5954;BME280;3002;42.642;24.812;2023-04-24T07:45:14;96261.69;;;22.18;45.63
5954;BME280;3002;42.642;24.812;2023-04-24T07:47:43;96255.56;;;22.02;45.55
5954;BME280;3002;42.642;24.812;2023-04-24T07:50:12;96260.66;;;22.27;46.44
5954;BME280;3002;42.642;24.812;2023-04-24T07:52:38;96252.72;;;23.05;42.39
5954;BME280;3002;42.642;24.812;2023-04-24T07:55:04;96272.22;;;23.33;43.11
5954;BME280;3002;42.642;24.812;2023-04-24T07:57:30;96267.13;;;22.98;41.94
5954;BME280;3002;42.642;24.812;2023-04-24T07:59:55;96268.97;;;22.11;44.44
5954;BME280;3002;42.642;24.812;2023-04-24T08:02:21;96253.16;;;21.97;45.27
5954;BME280;3002;42.642;24.812;2023-04-24T08:04:54;96259.75;;;21.73;45.62
5954;BME280;3002;42.642;24.812;2023-04-24T08:07:20;96247.94;;;22.38;44.45
5954;BME280;3002;42.642;24.812;2023-04-24T08:09:45;96261.81;;;22.82;43.82
5954;BME280;3002;42.642;24.812;2023-04-24T08:12:11;96259.00;;;23.42;42.49
5954;BME280;3002;42.642;24.812;2023-04-24T08:14:36;96260.06;;;24.71;39.62
5954;BME280;3002;42.642;24.812;2023-04-24T08:17:02;96245.81;;;25.20;39.28
5954;BME280;3002;42.642;24.812;2023-04-24T08:19:28;96229.72;;;25.22;38.94
5954;BME280;3002;42.642;24.812;2023-04-24T08:21:54;96230.47;;;22.46;42.70
5954;BME280;3002;42.642;24.812;2023-04-24T08:24:19;96234.34;;;22.15;44.87
5954;BME280;3002;42.642;24.812;2023-04-24T08:26:45;96219.84;;;22.37;43.35
5954;BME280;3002;42.642;24.812;2023-04-24T08:29:10;96240.75;;;24.49;40.04
5954;BME280;3002;42.642;24.812;2023-04-24T08:31:36;96236.91;;;22.61;43.42
5954;BME280;3002;42.642;24.812;2023-04-24T08:34:01;96233.63;;;21.72;46.40
5954;BME280;3002;42.642;24.812;2023-04-24T08:36:27;96243.81;;;23.48;42.04
5954;BME280;3002;42.642;24.812;2023-04-24T08:38:53;96234.41;;;24.38;40.09
5954;BME280;3002;42.642;24.812;2023-04-24T08:41:18;96249.91;;;24.71;39.69
5954;BME280;3002;42.642;24.812;2023-04-24T08:43:46;96242.22;;;23.85;41.14
5954;BME280;3002;42.642;24.812;2023-04-24T08:46:12;96231.88;;;22.93;43.57
5954;BME280;3002;42.642;24.812;2023-04-24T08:48:39;96229.56;;;24.83;40.35
5954;BME280;3002;42.642;24.812;2023-04-24T08:51:07;96230.22;;;26.21;37.16
5954;BME280;3002;42.642;24.812;2023-04-24T08:53:33;96236.84;;;23.95;40.85
5954;BME280;3002;42.642;24.812;2023-04-24T08:56:00;96213.25;;;22.15;44.78
5954;BME280;3002;42.642;24.812;2023-04-24T08:58:27;96206.31;;;21.95;46.32
5954;BME280;3002;42.642;24.812;2023-04-24T09:00:56;96211.66;;;21.23;46.84
5954;BME280;3002;42.642;24.812;2023-04-24T09:03:22;96221.94;;;21.49;46.15
5954;BME280;3002;42.642;24.812;2023-04-24T09:05:48;96208.13;;;21.87;46.05
5954;BME280;3002;42.642;24.812;2023-04-24T09:08:17;96209.81;;;21.27;47.10
5954;BME280;3002;42.642;24.812;2023-04-24T09:10:44;96200.13;;;21.75;45.38
5954;BME280;3002;42.642;24.812;2023-04-24T09:13:10;96196.81;;;22.12;44.84
5954;BME280;3002;42.642;24.812;2023-04-24T09:15:37;96222.44;;;22.57;44.70
5954;BME280;3002;42.642;24.812;2023-04-24T09:18:04;96222.25;;;21.93;44.97
5954;BME280;3002;42.642;24.812;2023-04-24T09:20:30;96196.75;;;21.59;45.32
5954;BME280;3002;42.642;24.812;2023-04-24T09:22:57;96211.34;;;21.93;45.43
5954;BME280;3002;42.642;24.812;2023-04-24T09:25:30;96214.19;;;23.17;42.52
5954;BME280;3002;42.642;24.812;2023-04-24T09:28:01;96207.94;;;24.67;40.30
5954;BME280;3002;42.642;24.812;2023-04-24T09:30:27;96190.63;;;23.90;40.53
5954;BME280;3002;42.642;24.812;2023-04-24T09:33:13;96196.88;;;23.87;41.79
5954;BME280;3002;42.642;24.812;2023-04-24T09:35:42;96198.75;;;25.22;39.89
5954;BME280;3002;42.642;24.812;2023-04-24T09:38:13;96185.03;;;25.15;38.46
5954;BME280;3002;42.642;24.812;2023-04-24T09:40:39;96178.38;;;25.33;38.47
5954;BME280;3002;42.642;24.812;2023-04-24T09:43:10;96192.56;;;25.68;38.06
5954;BME280;3002;42.642;24.812;2023-04-24T09:45:37;96191.50;;;24.01;40.59
5954;BME280;3002;42.642;24.812;2023-04-24T09:48:03;96191.88;;;23.56;41.09
5954;BME280;3002;42.642;24.812;2023-04-24T09:50:30;96152.78;;;21.18;44.63
5954;BME280;3002;42.642;24.812;2023-04-24T09:53:03;96182.63;;;21.30;44.57
5954;BME280;3002;42.642;24.812;2023-04-24T09:55:29;96192.34;;;21.08;45.11
5954;BME280;3002;42.642;24.812;2023-04-24T09:57:57;96184.41;;;21.42;43.81
5954;BME280;3002;42.642;24.812;2023-04-24T10:00:30;96180.88;;;22.14;42.52
5954;BME280;3002;42.642;24.812;2023-04-24T10:02:57;96185.19;;;20.62;46.21
5954;BME280;3002;42.642;24.812;2023-04-24T10:05:33;96181.09;;;21.79;45.40
5954;BME280;3002;42.642;24.812;2023-04-24T10:08:06;96162.16;;;22.16;44.31
5954;BME280;3002;42.642;24.812;2023-04-24T10:10:33;96163.91;;;22.05;44.40
5954;BME280;3002;42.642;24.812;2023-04-24T10:12:59;96178.25;;;20.10;49.21
5954;BME280;3002;42.642;24.812;2023-04-24T10:15:26;96174.44;;;19.47;50.22
5954;BME280;3002;42.642;24.812;2023-04-24T10:17:51;96182.16;;;19.14;51.29
5954;BME280;3002;42.642;24.812;2023-04-24T10:20:23;96180.75;;;20.53;49.42
5954;BME280;3002;42.642;24.812;2023-04-24T10:22:49;96177.78;;;20.43;49.20
5954;BME280;3002;42.642;24.812;2023-04-24T10:25:21;96170.38;;;21.44;48.51
5954;BME280;3002;42.642;24.812;2023-04-24T10:27:47;96161.47;;;21.96;46.14
5954;BME280;3002;42.642;24.812;2023-04-24T10:30:13;96157.16;;;21.46;46.20
5954;BME280;3002;42.642;24.812;2023-04-24T10:32:39;96157.78;;;22.11;46.60
5954;BME280;3002;42.642;24.812;2023-04-24T10:35:08;96164.44;;;22.40;44.73
5954;BME280;3002;42.642;24.812;2023-04-24T10:37:39;96154.34;;;23.12;44.51
5954;BME280;3002;42.642;24.812;2023-04-24T10:40:07;96165.69;;;24.10;43.40
5954;BME280;3002;42.642;24.812;2023-04-24T10:42:34;96158.00;;;25.34;40.20
5954;BME280;3002;42.642;24.812;2023-04-24T10:45:04;96154.09;;;25.89;38.22
5954;BME280;3002;42.642;24.812;2023-04-24T10:47:39;96147.22;;;26.72;37.51
5954;BME280;3002;42.642;24.812;2023-04-24T10:50:09;96162.00;;;27.66;35.71
5954;BME280;3002;42.642;24.812;2023-04-24T10:52:48;96164.06;;;27.55;36.39
5954;BME280;3002;42.642;24.812;2023-04-24T10:55:16;96162.31;;;28.92;33.71
5954;BME280;3002;42.642;24.812;2023-04-24T10:58:01;96131.31;;;25.42;39.24
5954;BME280;3002;42.642;24.812;2023-04-24T11:00:28;96140.75;;;23.67;43.01
5954;BME280;3002;42.642;24.812;2023-04-24T11:02:53;96122.69;;;24.14;41.68
5954;BME280;3002;42.642;24.812;2023-04-24T11:05:21;96122.47;;;22.56;43.99
5954;BME280;3002;42.642;24.812;2023-04-24T11:10:44;96134.72;;;24.78;38.80
5954;BME280;3002;42.642;24.812;2023-04-24T11:13:10;96120.72;;;24.14;40.21
5954;BME280;3002;42.642;24.812;2023-04-24T11:15:41;96112.81;;;22.05;43.56
5954;BME280;3002;42.642;24.812;2023-04-24T11:18:15;96112.31;;;22.23;44.76
5954;BME280;3002;42.642;24.812;2023-04-24T11:20:44;96088.28;;;23.61;42.51
5954;BME280;3002;42.642;24.812;2023-04-24T11:23:12;96114.75;;;23.94;40.54
5954;BME280;3002;42.642;24.812;2023-04-24T11:25:38;96117.59;;;23.57;41.96
5954;BME280;3002;42.642;24.812;2023-04-24T11:28:04;96090.94;;;25.18;39.58
5954;BME280;3002;42.642;24.812;2023-04-24T11:30:32;96095.06;;;27.20;35.61
5954;BME280;3002;42.642;24.812;2023-04-24T11:33:03;96095.06;;;24.44;40.39
5954;BME280;3002;42.642;24.812;2023-04-24T11:35:29;96095.03;;;26.51;37.48
5954;BME280;3002;42.642;24.812;2023-04-24T11:37:56;96105.44;;;25.22;39.69
5954;BME280;3002;42.642;24.812;2023-04-24T11:40:22;96104.25;;;25.23;38.88
5954;BME280;3002;42.642;24.812;2023-04-24T11:42:50;96101.72;;;24.43;40.82
5954;BME280;3002;42.642;24.812;2023-04-24T11:45:18;96096.69;;;26.34;38.12
5954;BME280;3002;42.642;24.812;2023-04-24T11:47:44;96094.00;;;27.56;35.76
5954;BME280;3002;42.642;24.812;2023-04-24T11:50:17;96090.44;;;29.26;34.62
5954;BME280;3002;42.642;24.812;2023-04-24T11:52:46;96093.00;;;28.56;34.30
5954;BME280;3002;42.642;24.812;2023-04-24T11:57:47;96087.22;;;27.71;36.85
5954;BME280;3002;42.642;24.812;2023-04-24T12:00:18;96076.56;;;28.75;34.02
5954;BME280;3002;42.642;24.812;2023-04-24T12:02:44;96071.63;;;29.68;32.10
5954;BME280;3002;42.642;24.812;2023-04-24T12:05:23;96068.50;;;29.66;32.21
5954;BME280;3002;42.642;24.812;2023-04-24T12:07:49;96070.38;;;28.37;33.32
5954;BME280;3002;42.642;24.812;2023-04-24T12:10:20;96069.97;;;26.34;35.62
5954;BME280;3002;42.642;24.812;2023-04-24T12:12:45;96052.28;;;26.35;34.48
5954;BME280;3002;42.642;24.812;2023-04-24T12:15:11;96031.41;;;28.01;32.92
5954;BME280;3002;42.642;24.812;2023-04-24T12:17:41;96039.53;;;29.03;31.25
5954;BME280;3002;42.642;24.812;2023-04-24T12:20:08;96052.41;;;30.83;30.24
5954;BME280;3002;42.642;24.812;2023-04-24T12:25:19;96037.50;;;24.47;37.07
5954;BME280;3002;42.642;24.812;2023-04-24T12:27:46;96030.28;;;27.54;34.31
5954;BME280;3002;42.642;24.812;2023-04-24T12:30:16;96021.72;;;27.86;33.47
5954;BME280;3002;42.642;24.812;2023-04-24T12:32:43;96019.78;;;28.17;33.00
5954;BME280;3002;42.642;24.812;2023-04-24T12:35:10;96014.75;;;30.50;30.98
5954;BME280;3002;42.642;24.812;2023-04-24T12:37:35;96010.97;;;30.60;30.36
5954;BME280;3002;42.642;24.812;2023-04-24T12:40:07;96007.09;;;28.53;33.45
5954;BME280;3002;42.642;24.812;2023-04-24T12:42:33;95996.16;;;30.50;31.15
5954;BME280;3002;42.642;24.812;2023-04-24T12:45:01;95994.81;;;25.60;37.38
5954;BME280;3002;42.642;24.812;2023-04-24T12:47:29;95989.22;;;27.66;35.05
5954;BME280;3002;42.642;24.812;2023-04-24T12:49:54;95976.13;;;28.96;32.67
5954;BME280;3002;42.642;24.812;2023-04-24T12:52:24;95980.88;;;29.19;32.72
5954;BME280;3002;42.642;24.812;2023-04-24T12:54:53;95986.72;;;30.11;32.22
5954;BME280;3002;42.642;24.812;2023-04-24T12:57:19;95976.66;;;28.34;34.65
5954;BME280;3002;42.642;24.812;2023-04-24T12:59:45;95963.78;;;29.04;33.42
5954;BME280;3002;42.642;24.812;2023-04-24T13:02:11;95964.69;;;28.44;34.69
5954;BME280;3002;42.642;24.812;2023-04-24T13:04:37;95952.19;;;28.63;34.11
5954;BME280;3002;42.642;24.812;2023-04-24T13:07:02;95941.44;;;28.45;34.10
5954;BME280;3002;42.642;24.812;2023-04-24T13:09:28;95962.75;;;28.41;34.13
5954;BME280;3002;42.642;24.812;2023-04-24T13:11:54;95954.72;;;27.55;36.10
5954;BME280;3002;42.642;24.812;2023-04-24T13:14:19;95965.25;;;27.26;36.22
5954;BME280;3002;42.642;24.812;2023-04-24T13:16:45;95938.75;;;26.42;37.36